sensor_id;sensor_type;location;lat;lon;timestamp;P1;durP1;ratioP1;P2;durP2;ratioP2
26486;SDS011;14425;56.136;40.360;2023-02-28T00:01:22;3.10;;;2.05;;
26486;SDS011;14425;56.136;40.360;2023-02-28T00:03:48;4.50;;;2.67;;
26486;SDS011;14425;56.136;40.360;2023-02-28T00:06:13;4.65;;;2.65;;
26486;SDS011;14425;56.136;40.360;2023-02-28T00:08:39;3.80;;;2.58;;
26486;SDS011;14425;56.136;40.360;2023-02-28T00:11:06;3.55;;;2.28;;
26486;SDS011;14425;56.136;40.360;2023-02-28T00:13:35;3.28;;;2.22;;
26486;SDS011;14425;56.136;40.360;2023-02-28T00:16:03;2.22;;;1.20;;
26486;SDS011;14425;56.136;40.360;2023-02-28T00:18:31;1.95;;;1.73;;
26486;SDS011;14425;56.136;40.360;2023-02-28T00:20:56;3.97;;;2.22;;
26486;SDS011;14425;56.136;40.360;2023-02-28T00:23:22;3.67;;;2.10;;
26486;SDS011;14425;56.136;40.360;2023-02-28T00:25:48;3.45;;;1.98;;
26486;SDS011;14425;56.136;40.360;2023-02-28T00:28:14;4.13;;;2.28;;
26486;SDS011;14425;56.136;40.360;2023-02-28T00:30:39;3.75;;;2.13;;
26486;SDS011;14425;56.136;40.360;2023-02-28T00:33:05;6.35;;;2.35;;
26486;SDS011;14425;56.136;40.360;2023-02-28T00:35:30;3.28;;;2.47;;
26486;SDS011;14425;56.136;40.360;2023-02-28T00:37:56;2.88;;;1.52;;
26486;SDS011;14425;56.136;40.360;2023-02-28T00:40:21;3.08;;;1.80;;
26486;SDS011;14425;56.136;40.360;2023-02-28T00:42:47;5.20;;;3.20;;
26486;SDS011;14425;56.136;40.360;2023-02-28T00:45:12;4.40;;;2.53;;
26486;SDS011;14425;56.136;40.360;2023-02-28T00:47:38;4.57;;;3.28;;
26486;SDS011;14425;56.136;40.360;2023-02-28T00:50:03;2.88;;;2.03;;
26486;SDS011;14425;56.136;40.360;2023-02-28T00:52:30;2.22;;;1.70;;
26486;SDS011;14425;56.136;40.360;2023-02-28T00:54:56;5.53;;;1.90;;
26486;SDS011;14425;56.136;40.360;2023-02-28T00:57:21;2.80;;;1.45;;
26486;SDS011;14425;56.136;40.360;2023-02-28T00:59:47;2.80;;;1.63;;
26486;SDS011;14425;56.136;40.360;2023-02-28T01:02:12;1.90;;;1.35;;
26486;SDS011;14425;56.136;40.360;2023-02-28T01:04:38;3.85;;;1.65;;
26486;SDS011;14425;56.136;40.360;2023-02-28T01:07:03;2.80;;;2.08;;
26486;SDS011;14425;56.136;40.360;2023-02-28T01:09:29;5.60;;;3.13;;
26486;SDS011;14425;56.136;40.360;2023-02-28T01:11:54;2.10;;;1.58;;
26486;SDS011;14425;56.136;40.360;2023-02-28T01:14:20;4.93;;;3.03;;
26486;SDS011;14425;56.136;40.360;2023-02-28T01:16:45;3.85;;;2.70;;
26486;SDS011;14425;56.136;40.360;2023-02-28T01:19:11;2.50;;;1.48;;
26486;SDS011;14425;56.136;40.360;2023-02-28T01:21:36;3.55;;;1.83;;
26486;SDS011;14425;56.136;40.360;2023-02-28T01:24:02;5.30;;;2.22;;
26486;SDS011;14425;56.136;40.360;2023-02-28T01:26:29;4.72;;;2.35;;
26486;SDS011;14425;56.136;40.360;2023-02-28T01:28:54;4.30;;;2.38;;
26486;SDS011;14425;56.136;40.360;2023-02-28T01:31:20;3.60;;;2.17;;
26486;SDS011;14425;56.136;40.360;2023-02-28T01:33:47;4.82;;;2.95;;
26486;SDS011;14425;56.136;40.360;2023-02-28T01:36:14;7.82;;;3.25;;
26486;SDS011;14425;56.136;40.360;2023-02-28T01:38:41;5.20;;;3.17;;
26486;SDS011;14425;56.136;40.360;2023-02-28T01:41:07;6.40;;;3.38;;
26486;SDS011;14425;56.136;40.360;2023-02-28T01:46:08;4.53;;;2.60;;
26486;SDS011;14425;56.136;40.360;2023-02-28T01:48:38;17.13;;;5.03;;
26486;SDS011;14425;56.136;40.360;2023-02-28T01:51:11;22.33;;;8.13;;
26486;SDS011;14425;56.136;40.360;2023-02-28T01:53:42;18.00;;;6.78;;
26486;SDS011;14425;56.136;40.360;2023-02-28T01:56:12;21.35;;;7.93;;
26486;SDS011;14425;56.136;40.360;2023-02-28T01:58:48;21.30;;;6.88;;
26486;SDS011;14425;56.136;40.360;2023-02-28T02:01:16;14.45;;;6.85;;
26486;SDS011;14425;56.136;40.360;2023-02-28T02:03:45;19.35;;;7.03;;
26486;SDS011;14425;56.136;40.360;2023-02-28T02:06:11;18.35;;;8.30;;
26486;SDS011;14425;56.136;40.360;2023-02-28T02:08:36;11.25;;;5.93;;
26486;SDS011;14425;56.136;40.360;2023-02-28T02:11:02;7.70;;;4.60;;
26486;SDS011;14425;56.136;40.360;2023-02-28T02:35:00;5.43;;;3.10;;
26486;SDS011;14425;56.136;40.360;2023-02-28T02:37:35;1.92;;;1.27;;
26486;SDS011;14425;56.136;40.360;2023-02-28T02:40:29;4.88;;;2.80;;
26486;SDS011;14425;56.136;40.360;2023-02-28T02:43:01;3.47;;;2.05;;
26486;SDS011;14425;56.136;40.360;2023-02-28T02:45:53;2.78;;;1.92;;
26486;SDS011;14425;56.136;40.360;2023-02-28T02:48:21;7.03;;;3.60;;
26486;SDS011;14425;56.136;40.360;2023-02-28T02:50:55;3.83;;;2.08;;
26486;SDS011;14425;56.136;40.360;2023-02-28T02:53:32;2.60;;;1.45;;
26486;SDS011;14425;56.136;40.360;2023-02-28T02:56:02;3.67;;;2.08;;
26486;SDS011;14425;56.136;40.360;2023-02-28T02:58:31;5.63;;;3.33;;
26486;SDS011;14425;56.136;40.360;2023-02-28T03:01:00;4.45;;;2.33;;
26486;SDS011;14425;56.136;40.360;2023-02-28T03:03:30;5.63;;;2.58;;
26486;SDS011;14425;56.136;40.360;2023-02-28T03:05:59;4.47;;;2.72;;
26486;SDS011;14425;56.136;40.360;2023-02-28T03:08:26;5.25;;;2.55;;
26486;SDS011;14425;56.136;40.360;2023-02-28T03:10:59;3.13;;;1.80;;
26486;SDS011;14425;56.136;40.360;2023-02-28T03:15:58;3.47;;;2.13;;
26486;SDS011;14425;56.136;40.360;2023-02-28T03:24:29;4.63;;;3.03;;
26486;SDS011;14425;56.136;40.360;2023-02-28T03:27:10;7.25;;;3.40;;
26486;SDS011;14425;56.136;40.360;2023-02-28T03:29:43;5.78;;;3.45;;
26486;SDS011;14425;56.136;40.360;2023-02-28T03:32:18;6.53;;;3.67;;
26486;SDS011;14425;56.136;40.360;2023-02-28T03:40:25;7.82;;;3.88;;
26486;SDS011;14425;56.136;40.360;2023-02-28T03:42:57;7.20;;;4.18;;
26486;SDS011;14425;56.136;40.360;2023-02-28T03:45:29;24.50;;;4.38;;
26486;SDS011;14425;56.136;40.360;2023-02-28T03:48:02;8.07;;;3.38;;
26486;SDS011;14425;56.136;40.360;2023-02-28T03:50:34;6.85;;;3.92;;
26486;SDS011;14425;56.136;40.360;2023-02-28T03:55:43;2.70;;;2.40;;
26486;SDS011;14425;56.136;40.360;2023-02-28T03:58:21;7.10;;;3.70;;
26486;SDS011;14425;56.136;40.360;2023-02-28T04:00:49;3.30;;;2.42;;
26486;SDS011;14425;56.136;40.360;2023-02-28T04:03:21;9.63;;;4.03;;
26486;SDS011;14425;56.136;40.360;2023-02-28T04:05:50;5.70;;;3.90;;
26486;SDS011;14425;56.136;40.360;2023-02-28T04:08:17;9.30;;;4.95;;
26486;SDS011;14425;56.136;40.360;2023-02-28T04:10:43;7.25;;;4.05;;
26486;SDS011;14425;56.136;40.360;2023-02-28T04:13:14;9.00;;;3.67;;
26486;SDS011;14425;56.136;40.360;2023-02-28T04:15:40;5.97;;;3.88;;
26486;SDS011;14425;56.136;40.360;2023-02-28T04:18:06;7.85;;;3.33;;
26486;SDS011;14425;56.136;40.360;2023-02-28T04:20:31;8.98;;;4.78;;
26486;SDS011;14425;56.136;40.360;2023-02-28T04:22:57;8.93;;;4.57;;
26486;SDS011;14425;56.136;40.360;2023-02-28T04:25:22;8.60;;;2.60;;
26486;SDS011;14425;56.136;40.360;2023-02-28T04:27:48;7.40;;;4.65;;
26486;SDS011;14425;56.136;40.360;2023-02-28T04:30:13;7.20;;;3.80;;
26486;SDS011;14425;56.136;40.360;2023-02-28T04:32:39;9.05;;;5.63;;
26486;SDS011;14425;56.136;40.360;2023-02-28T04:35:05;5.75;;;3.03;;
26486;SDS011;14425;56.136;40.360;2023-02-28T04:37:30;12.10;;;5.85;;
26486;SDS011;14425;56.136;40.360;2023-02-28T04:39:59;5.00;;;2.55;;
26486;SDS011;14425;56.136;40.360;2023-02-28T04:42:26;9.88;;;3.33;;
26486;SDS011;14425;56.136;40.360;2023-02-28T04:44:51;5.00;;;2.80;;
26486;SDS011;14425;56.136;40.360;2023-02-28T04:47:17;10.40;;;5.00;;
26486;SDS011;14425;56.136;40.360;2023-02-28T04:49:42;10.63;;;4.95;;
26486;SDS011;14425;56.136;40.360;2023-02-28T04:52:08;9.23;;;5.47;;
26486;SDS011;14425;56.136;40.360;2023-02-28T04:54:35;5.53;;;3.72;;
26486;SDS011;14425;56.136;40.360;2023-02-28T04:57:00;5.95;;;3.10;;
26486;SDS011;14425;56.136;40.360;2023-02-28T04:59:26;8.40;;;4.82;;
26486;SDS011;14425;56.136;40.360;2023-02-28T05:01:52;10.07;;;4.70;;
26486;SDS011;14425;56.136;40.360;2023-02-28T05:04:17;4.40;;;2.22;;
26486;SDS011;14425;56.136;40.360;2023-02-28T05:06:43;8.35;;;4.57;;
26486;SDS011;14425;56.136;40.360;2023-02-28T05:09:09;4.90;;;3.30;;
26486;SDS011;14425;56.136;40.360;2023-02-28T05:11:36;9.00;;;3.95;;
26486;SDS011;14425;56.136;40.360;2023-02-28T05:14:04;6.55;;;4.10;;
26486;SDS011;14425;56.136;40.360;2023-02-28T05:16:31;6.38;;;4.07;;
26486;SDS011;14425;56.136;40.360;2023-02-28T05:18:58;8.95;;;4.43;;
26486;SDS011;14425;56.136;40.360;2023-02-28T05:21:25;7.35;;;3.50;;
26486;SDS011;14425;56.136;40.360;2023-02-28T05:23:54;5.37;;;3.03;;
26486;SDS011;14425;56.136;40.360;2023-02-28T05:26:22;10.73;;;4.28;;
26486;SDS011;14425;56.136;40.360;2023-02-28T05:28:47;4.55;;;3.03;;
26486;SDS011;14425;56.136;40.360;2023-02-28T05:31:13;7.85;;;4.10;;
26486;SDS011;14425;56.136;40.360;2023-02-28T05:33:39;9.60;;;4.88;;
26486;SDS011;14425;56.136;40.360;2023-02-28T05:36:05;6.43;;;3.25;;
26486;SDS011;14425;56.136;40.360;2023-02-28T05:38:31;4.43;;;2.75;;
26486;SDS011;14425;56.136;40.360;2023-02-28T05:40:56;4.00;;;3.28;;
26486;SDS011;14425;56.136;40.360;2023-02-28T05:43:22;7.07;;;4.32;;
26486;SDS011;14425;56.136;40.360;2023-02-28T05:45:47;4.95;;;2.97;;
26486;SDS011;14425;56.136;40.360;2023-02-28T05:48:13;8.85;;;3.53;;
26486;SDS011;14425;56.136;40.360;2023-02-28T05:50:38;7.82;;;3.42;;
26486;SDS011;14425;56.136;40.360;2023-02-28T05:53:04;6.05;;;2.42;;
26486;SDS011;14425;56.136;40.360;2023-02-28T05:55:30;5.30;;;2.70;;
26486;SDS011;14425;56.136;40.360;2023-02-28T05:57:55;6.63;;;3.20;;
26486;SDS011;14425;56.136;40.360;2023-02-28T06:00:21;6.68;;;3.20;;
26486;SDS011;14425;56.136;40.360;2023-02-28T06:02:47;5.70;;;2.72;;
26486;SDS011;14425;56.136;40.360;2023-02-28T06:05:14;3.45;;;2.42;;
26486;SDS011;14425;56.136;40.360;2023-02-28T06:07:41;3.97;;;2.88;;
26486;SDS011;14425;56.136;40.360;2023-02-28T06:10:08;6.43;;;3.70;;
26486;SDS011;14425;56.136;40.360;2023-02-28T06:12:35;3.42;;;2.22;;
26486;SDS011;14425;56.136;40.360;2023-02-28T06:15:00;4.65;;;3.35;;
26486;SDS011;14425;56.136;40.360;2023-02-28T06:17:26;5.50;;;2.45;;
26486;SDS011;14425;56.136;40.360;2023-02-28T06:19:51;8.23;;;3.38;;
26486;SDS011;14425;56.136;40.360;2023-02-28T06:22:17;5.82;;;2.00;;
26486;SDS011;14425;56.136;40.360;2023-02-28T06:24:42;6.00;;;3.22;;
26486;SDS011;14425;56.136;40.360;2023-02-28T06:27:08;2.58;;;2.05;;
26486;SDS011;14425;56.136;40.360;2023-02-28T06:29:34;4.90;;;2.85;;
26486;SDS011;14425;56.136;40.360;2023-02-28T06:32:00;5.93;;;3.20;;
26486;SDS011;14425;56.136;40.360;2023-02-28T06:34:26;7.00;;;3.63;;
26486;SDS011;14425;56.136;40.360;2023-02-28T06:36:52;6.55;;;3.25;;
26486;SDS011;14425;56.136;40.360;2023-02-28T06:39:18;4.47;;;2.97;;
26486;SDS011;14425;56.136;40.360;2023-02-28T06:41:44;3.13;;;1.83;;
26486;SDS011;14425;56.136;40.360;2023-02-28T06:44:14;7.47;;;3.35;;
26486;SDS011;14425;56.136;40.360;2023-02-28T06:49:08;4.22;;;2.90;;
26486;SDS011;14425;56.136;40.360;2023-02-28T06:51:35;8.75;;;3.65;;
26486;SDS011;14425;56.136;40.360;2023-02-28T06:54:02;4.05;;;3.00;;
26486;SDS011;14425;56.136;40.360;2023-02-28T06:56:28;2.33;;;1.77;;
26486;SDS011;14425;56.136;40.360;2023-02-28T06:58:53;7.72;;;3.50;;
26486;SDS011;14425;56.136;40.360;2023-02-28T07:01:19;3.10;;;2.17;;
26486;SDS011;14425;56.136;40.360;2023-02-28T07:03:45;2.80;;;1.58;;
26486;SDS011;14425;56.136;40.360;2023-02-28T07:06:11;3.65;;;1.80;;
26486;SDS011;14425;56.136;40.360;2023-02-28T07:08:37;4.07;;;2.47;;
26486;SDS011;14425;56.136;40.360;2023-02-28T07:11:03;1.90;;;1.60;;
26486;SDS011;14425;56.136;40.360;2023-02-28T07:13:29;5.40;;;2.47;;
26486;SDS011;14425;56.136;40.360;2023-02-28T07:18:21;4.57;;;2.33;;
26486;SDS011;14425;56.136;40.360;2023-02-28T07:20:47;3.47;;;2.50;;
26486;SDS011;14425;56.136;40.360;2023-02-28T07:23:12;7.75;;;2.83;;
26486;SDS011;14425;56.136;40.360;2023-02-28T07:25:38;5.40;;;3.08;;
26486;SDS011;14425;56.136;40.360;2023-02-28T07:28:04;6.03;;;3.67;;
26486;SDS011;14425;56.136;40.360;2023-02-28T07:30:30;5.82;;;2.30;;
26486;SDS011;14425;56.136;40.360;2023-02-28T07:32:55;5.18;;;2.88;;
26486;SDS011;14425;56.136;40.360;2023-02-28T07:35:21;2.47;;;1.77;;
26486;SDS011;14425;56.136;40.360;2023-02-28T07:37:47;2.05;;;1.13;;
26486;SDS011;14425;56.136;40.360;2023-02-28T07:40:13;3.78;;;2.45;;
26486;SDS011;14425;56.136;40.360;2023-02-28T07:42:39;6.30;;;2.97;;
26486;SDS011;14425;56.136;40.360;2023-02-28T07:45:06;4.78;;;2.88;;
26486;SDS011;14425;56.136;40.360;2023-02-28T07:47:33;3.80;;;2.47;;
26486;SDS011;14425;56.136;40.360;2023-02-28T07:49:58;3.95;;;2.83;;
26486;SDS011;14425;56.136;40.360;2023-02-28T07:52:24;2.28;;;1.83;;
26486;SDS011;14425;56.136;40.360;2023-02-28T07:54:50;6.30;;;2.20;;
26486;SDS011;14425;56.136;40.360;2023-02-28T07:57:16;5.63;;;2.50;;
26486;SDS011;14425;56.136;40.360;2023-02-28T07:59:41;2.72;;;1.80;;
26486;SDS011;14425;56.136;40.360;2023-02-28T08:02:12;5.97;;;3.35;;
26486;SDS011;14425;56.136;40.360;2023-02-28T08:04:38;2.80;;;1.83;;
26486;SDS011;14425;56.136;40.360;2023-02-28T08:07:04;5.40;;;2.55;;
26486;SDS011;14425;56.136;40.360;2023-02-28T08:09:29;2.05;;;1.55;;
26486;SDS011;14425;56.136;40.360;2023-02-28T08:11:55;5.65;;;2.67;;
26486;SDS011;14425;56.136;40.360;2023-02-28T08:14:21;4.20;;;2.55;;
26486;SDS011;14425;56.136;40.360;2023-02-28T08:16:46;9.25;;;3.13;;
26486;SDS011;14425;56.136;40.360;2023-02-28T08:19:12;4.40;;;2.88;;
26486;SDS011;14425;56.136;40.360;2023-02-28T08:21:37;4.68;;;2.88;;
26486;SDS011;14425;56.136;40.360;2023-02-28T08:24:03;6.35;;;2.25;;
26486;SDS011;14425;56.136;40.360;2023-02-28T08:26:29;0.55;;;0.30;;
26486;SDS011;14425;56.136;40.360;2023-02-28T08:28:54;7.00;;;2.70;;
26486;SDS011;14425;56.136;40.360;2023-02-28T08:31:20;4.25;;;2.47;;
26486;SDS011;14425;56.136;40.360;2023-02-28T08:33:45;2.00;;;1.50;;
26486;SDS011;14425;56.136;40.360;2023-02-28T08:36:13;4.78;;;2.65;;
26486;SDS011;14425;56.136;40.360;2023-02-28T08:38:40;3.03;;;1.70;;
26486;SDS011;14425;56.136;40.360;2023-02-28T08:41:07;2.35;;;1.35;;
26486;SDS011;14425;56.136;40.360;2023-02-28T08:43:34;1.13;;;0.90;;
26486;SDS011;14425;56.136;40.360;2023-02-28T08:46:00;3.58;;;1.52;;
26486;SDS011;14425;56.136;40.360;2023-02-28T08:48:27;5.10;;;2.65;;
26486;SDS011;14425;56.136;40.360;2023-02-28T08:50:57;1.55;;;1.25;;
26486;SDS011;14425;56.136;40.360;2023-02-28T08:53:28;1.75;;;1.50;;
26486;SDS011;14425;56.136;40.360;2023-02-28T08:56:01;2.15;;;1.50;;
26486;SDS011;14425;56.136;40.360;2023-02-28T08:58:29;3.05;;;1.15;;
26486;SDS011;14425;56.136;40.360;2023-02-28T09:00:54;4.32;;;1.98;;
26486;SDS011;14425;56.136;40.360;2023-02-28T09:03:21;3.80;;;1.83;;
26486;SDS011;14425;56.136;40.360;2023-02-28T09:08:23;5.93;;;2.72;;
26486;SDS011;14425;56.136;40.360;2023-02-28T09:10:50;5.63;;;2.50;;
26486;SDS011;14425;56.136;40.360;2023-02-28T09:13:16;2.75;;;1.55;;
26486;SDS011;14425;56.136;40.360;2023-02-28T09:15:42;2.00;;;1.65;;
26486;SDS011;14425;56.136;40.360;2023-02-28T09:18:07;5.00;;;1.85;;
26486;SDS011;14425;56.136;40.360;2023-02-28T09:20:33;2.10;;;1.73;;
26486;SDS011;14425;56.136;40.360;2023-02-28T09:22:59;2.90;;;1.55;;
26486;SDS011;14425;56.136;40.360;2023-02-28T09:25:24;2.60;;;1.95;;
26486;SDS011;14425;56.136;40.360;2023-02-28T09:27:50;2.58;;;2.10;;
26486;SDS011;14425;56.136;40.360;2023-02-28T09:30:15;4.25;;;2.08;;
26486;SDS011;14425;56.136;40.360;2023-02-28T09:32:41;4.22;;;1.85;;
26486;SDS011;14425;56.136;40.360;2023-02-28T09:35:07;2.55;;;2.20;;
26486;SDS011;14425;56.136;40.360;2023-02-28T09:37:38;4.40;;;2.30;;
26486;SDS011;14425;56.136;40.360;2023-02-28T09:40:04;3.42;;;2.10;;
26486;SDS011;14425;56.136;40.360;2023-02-28T09:42:31;4.60;;;2.15;;
26486;SDS011;14425;56.136;40.360;2023-02-28T09:44:59;3.55;;;1.83;;
26486;SDS011;14425;56.136;40.360;2023-02-28T09:52:51;3.38;;;1.60;;
26486;SDS011;14425;56.136;40.360;2023-02-28T09:55:26;1.92;;;1.40;;
26486;SDS011;14425;56.136;40.360;2023-02-28T09:57:58;2.38;;;1.92;;
26486;SDS011;14425;56.136;40.360;2023-02-28T10:00:34;1.05;;;0.85;;
26486;SDS011;14425;56.136;40.360;2023-02-28T10:03:24;2.08;;;1.00;;
26486;SDS011;14425;56.136;40.360;2023-02-28T10:05:56;2.95;;;1.77;;
26486;SDS011;14425;56.136;40.360;2023-02-28T10:08:33;2.97;;;1.95;;
26486;SDS011;14425;56.136;40.360;2023-02-28T10:11:11;2.28;;;1.52;;
26486;SDS011;14425;56.136;40.360;2023-02-28T10:16:31;3.88;;;1.05;;
26486;SDS011;14425;56.136;40.360;2023-02-28T10:19:22;2.47;;;1.38;;
26486;SDS011;14425;56.136;40.360;2023-02-28T10:22:02;4.85;;;2.58;;
26486;SDS011;14425;56.136;40.360;2023-02-28T10:24:32;2.85;;;1.50;;
26486;SDS011;14425;56.136;40.360;2023-02-28T10:27:15;5.03;;;2.45;;
26486;SDS011;14425;56.136;40.360;2023-02-28T10:29:45;2.17;;;1.50;;
26486;SDS011;14425;56.136;40.360;2023-02-28T10:32:14;2.13;;;1.15;;
26486;SDS011;14425;56.136;40.360;2023-02-28T10:34:42;1.48;;;0.98;;
26486;SDS011;14425;56.136;40.360;2023-02-28T10:37:09;1.67;;;1.58;;
26486;SDS011;14425;56.136;40.360;2023-02-28T10:39:37;4.40;;;2.85;;
26486;SDS011;14425;56.136;40.360;2023-02-28T10:42:29;0.93;;;0.63;;
26486;SDS011;14425;56.136;40.360;2023-02-28T10:45:10;3.28;;;1.33;;
26486;SDS011;14425;56.136;40.360;2023-02-28T10:48:03;3.30;;;1.83;;
26486;SDS011;14425;56.136;40.360;2023-02-28T10:58:30;2.35;;;1.10;;
26486;SDS011;14425;56.136;40.360;2023-02-28T11:01:11;5.38;;;1.92;;
26486;SDS011;14425;56.136;40.360;2023-02-28T11:03:41;2.22;;;1.05;;
26486;SDS011;14425;56.136;40.360;2023-02-28T11:06:08;1.80;;;1.02;;
26486;SDS011;14425;56.136;40.360;2023-02-28T11:08:48;2.55;;;1.30;;
26486;SDS011;14425;56.136;40.360;2023-02-28T11:11:16;1.50;;;0.88;;
26486;SDS011;14425;56.136;40.360;2023-02-28T11:13:44;1.10;;;0.70;;
26486;SDS011;14425;56.136;40.360;2023-02-28T11:16:12;2.35;;;1.83;;
26486;SDS011;14425;56.136;40.360;2023-02-28T11:21:37;3.58;;;1.23;;
26486;SDS011;14425;56.136;40.360;2023-02-28T11:24:18;6.15;;;1.50;;
26486;SDS011;14425;56.136;40.360;2023-02-28T11:26:52;3.60;;;1.40;;
26486;SDS011;14425;56.136;40.360;2023-02-28T11:29:35;3.92;;;1.40;;
26486;SDS011;14425;56.136;40.360;2023-02-28T11:35:01;2.67;;;1.27;;
26486;SDS011;14425;56.136;40.360;2023-02-28T11:37:35;3.65;;;1.08;;
26486;SDS011;14425;56.136;40.360;2023-02-28T11:40:02;1.67;;;1.13;;
26486;SDS011;14425;56.136;40.360;2023-02-28T11:42:49;3.40;;;1.70;;
26486;SDS011;14425;56.136;40.360;2023-02-28T11:48:16;4.13;;;1.80;;
26486;SDS011;14425;56.136;40.360;2023-02-28T11:55:57;1.75;;;1.35;;
26486;SDS011;14425;56.136;40.360;2023-02-28T12:10:26;3.95;;;2.05;;
26486;SDS011;14425;56.136;40.360;2023-02-28T12:13:06;3.72;;;2.15;;
26486;SDS011;14425;56.136;40.360;2023-02-28T12:23:49;1.92;;;0.93;;
26486;SDS011;14425;56.136;40.360;2023-02-28T12:26:38;2.63;;;1.30;;
26486;SDS011;14425;56.136;40.360;2023-02-28T12:31:45;4.13;;;1.60;;
26486;SDS011;14425;56.136;40.360;2023-02-28T12:34:37;2.03;;;1.15;;
26486;SDS011;14425;56.136;40.360;2023-02-28T12:37:06;3.67;;;1.50;;
26486;SDS011;14425;56.136;40.360;2023-02-28T12:39:44;2.55;;;1.23;;
26486;SDS011;14425;56.136;40.360;2023-02-28T12:44:54;3.43;;;1.40;;
26486;SDS011;14425;56.136;40.360;2023-02-28T12:47:20;1.15;;;0.73;;
26486;SDS011;14425;56.136;40.360;2023-02-28T12:49:50;0.77;;;0.60;;
26486;SDS011;14425;56.136;40.360;2023-02-28T12:55:12;2.75;;;1.50;;
26486;SDS011;14425;56.136;40.360;2023-02-28T12:57:48;1.58;;;1.00;;
26486;SDS011;14425;56.136;40.360;2023-02-28T13:00:22;5.38;;;1.60;;
26486;SDS011;14425;56.136;40.360;2023-02-28T13:10:43;1.25;;;1.15;;
26486;SDS011;14425;56.136;40.360;2023-02-28T13:13:13;1.75;;;0.95;;
26486;SDS011;14425;56.136;40.360;2023-02-28T13:15:41;3.90;;;1.40;;
26486;SDS011;14425;56.136;40.360;2023-02-28T13:21:06;1.17;;;0.85;;
26486;SDS011;14425;56.136;40.360;2023-02-28T13:23:39;0.85;;;0.75;;
26486;SDS011;14425;56.136;40.360;2023-02-28T13:27:10;1.38;;;0.80;;
26486;SDS011;14425;56.136;40.360;2023-02-28T13:34:33;1.15;;;0.90;;
26486;SDS011;14425;56.136;40.360;2023-02-28T13:39:46;0.60;;;0.43;;
26486;SDS011;14425;56.136;40.360;2023-02-28T13:47:35;1.02;;;0.60;;
26486;SDS011;14425;56.136;40.360;2023-02-28T13:52:43;0.98;;;0.75;;
26486;SDS011;14425;56.136;40.360;2023-02-28T13:55:34;1.38;;;0.82;;
26486;SDS011;14425;56.136;40.360;2023-02-28T14:11:38;1.70;;;1.40;;
26486;SDS011;14425;56.136;40.360;2023-02-28T14:14:06;4.85;;;1.48;;
26486;SDS011;14425;56.136;40.360;2023-02-28T14:16:37;1.85;;;0.75;;
26486;SDS011;14425;56.136;40.360;2023-02-28T14:38:27;1.27;;;1.05;;
26486;SDS011;14425;56.136;40.360;2023-02-28T14:40:56;0.22;;;0.22;;
26486;SDS011;14425;56.136;40.360;2023-02-28T14:43:26;0.70;;;0.70;;
26486;SDS011;14425;56.136;40.360;2023-02-28T14:45:54;2.45;;;1.40;;
26486;SDS011;14425;56.136;40.360;2023-02-28T14:48:22;1.00;;;0.88;;
26486;SDS011;14425;56.136;40.360;2023-02-28T14:50:51;0.90;;;0.68;;
26486;SDS011;14425;56.136;40.360;2023-02-28T14:53:22;1.88;;;0.85;;
26486;SDS011;14425;56.136;40.360;2023-02-28T14:55:50;1.67;;;1.27;;
26486;SDS011;14425;56.136;40.360;2023-02-28T15:00:55;3.42;;;1.38;;
26486;SDS011;14425;56.136;40.360;2023-02-28T15:06:05;1.98;;;1.23;;
26486;SDS011;14425;56.136;40.360;2023-02-28T15:08:38;0.98;;;0.82;;
26486;SDS011;14425;56.136;40.360;2023-02-28T15:11:05;1.00;;;0.63;;
26486;SDS011;14425;56.136;40.360;2023-02-28T15:13:38;2.47;;;1.15;;
26486;SDS011;14425;56.136;40.360;2023-02-28T15:16:20;3.22;;;0.60;;
26486;SDS011;14425;56.136;40.360;2023-02-28T15:18:50;1.67;;;1.13;;
26486;SDS011;14425;56.136;40.360;2023-02-28T15:26:30;5.10;;;2.38;;
26486;SDS011;14425;56.136;40.360;2023-02-28T15:29:07;3.33;;;1.38;;
26486;SDS011;14425;56.136;40.360;2023-02-28T15:31:43;0.75;;;0.75;;
26486;SDS011;14425;56.136;40.360;2023-02-28T15:34:20;1.67;;;1.25;;
26486;SDS011;14425;56.136;40.360;2023-02-28T15:36:47;3.00;;;1.33;;
26486;SDS011;14425;56.136;40.360;2023-02-28T15:39:21;2.72;;;2.00;;
26486;SDS011;14425;56.136;40.360;2023-02-28T15:41:48;0.68;;;0.45;;
26486;SDS011;14425;56.136;40.360;2023-02-28T15:46:57;1.02;;;0.60;;
26486;SDS011;14425;56.136;40.360;2023-02-28T15:49:23;2.75;;;1.67;;
26486;SDS011;14425;56.136;40.360;2023-02-28T15:51:50;1.27;;;0.98;;
26486;SDS011;14425;56.136;40.360;2023-02-28T15:54:19;1.05;;;0.90;;
26486;SDS011;14425;56.136;40.360;2023-02-28T15:59:26;2.25;;;1.45;;
26486;SDS011;14425;56.136;40.360;2023-02-28T16:04:34;2.28;;;1.02;;
26486;SDS011;14425;56.136;40.360;2023-02-28T16:07:05;4.15;;;2.88;;
26486;SDS011;14425;56.136;40.360;2023-02-28T16:09:31;1.85;;;1.55;;
26486;SDS011;14425;56.136;40.360;2023-02-28T16:12:00;1.33;;;0.93;;
26486;SDS011;14425;56.136;40.360;2023-02-28T16:14:28;2.47;;;1.40;;
26486;SDS011;14425;56.136;40.360;2023-02-28T16:17:10;3.15;;;1.60;;
26486;SDS011;14425;56.136;40.360;2023-02-28T16:19:44;2.60;;;1.23;;
26486;SDS011;14425;56.136;40.360;2023-02-28T16:22:10;0.75;;;0.70;;
26486;SDS011;14425;56.136;40.360;2023-02-28T16:24:35;2.58;;;1.30;;
26486;SDS011;14425;56.136;40.360;2023-02-28T16:27:02;1.15;;;0.68;;
26486;SDS011;14425;56.136;40.360;2023-02-28T16:29:31;7.32;;;1.70;;
26486;SDS011;14425;56.136;40.360;2023-02-28T16:32:00;1.30;;;1.20;;
26486;SDS011;14425;56.136;40.360;2023-02-28T16:34:26;0.98;;;0.90;;
26486;SDS011;14425;56.136;40.360;2023-02-28T16:36:52;3.33;;;1.65;;
26486;SDS011;14425;56.136;40.360;2023-02-28T16:39:18;3.67;;;1.95;;
26486;SDS011;14425;56.136;40.360;2023-02-28T16:41:45;1.73;;;1.10;;
26486;SDS011;14425;56.136;40.360;2023-02-28T16:44:32;1.70;;;1.40;;
26486;SDS011;14425;56.136;40.360;2023-02-28T16:46:59;2.65;;;2.22;;
26486;SDS011;14425;56.136;40.360;2023-02-28T16:49:26;1.45;;;0.77;;
26486;SDS011;14425;56.136;40.360;2023-02-28T16:51:52;2.63;;;1.33;;
26486;SDS011;14425;56.136;40.360;2023-02-28T16:54:17;6.65;;;1.92;;
26486;SDS011;14425;56.136;40.360;2023-02-28T16:56:44;2.10;;;1.33;;
26486;SDS011;14425;56.136;40.360;2023-02-28T16:59:11;3.30;;;1.15;;
26486;SDS011;14425;56.136;40.360;2023-02-28T17:01:37;2.90;;;1.85;;
26486;SDS011;14425;56.136;40.360;2023-02-28T17:04:03;5.03;;;2.45;;
26486;SDS011;14425;56.136;40.360;2023-02-28T17:06:29;3.88;;;1.90;;
26486;SDS011;14425;56.136;40.360;2023-02-28T17:08:56;2.65;;;1.60;;
26486;SDS011;14425;56.136;40.360;2023-02-28T17:11:23;5.95;;;2.08;;
26486;SDS011;14425;56.136;40.360;2023-02-28T17:13:49;10.07;;;2.22;;
26486;SDS011;14425;56.136;40.360;2023-02-28T17:16:29;5.10;;;1.63;;
26486;SDS011;14425;56.136;40.360;2023-02-28T17:18:57;1.58;;;1.23;;
26486;SDS011;14425;56.136;40.360;2023-02-28T17:21:24;2.22;;;1.88;;
26486;SDS011;14425;56.136;40.360;2023-02-28T17:23:50;3.65;;;1.40;;
26486;SDS011;14425;56.136;40.360;2023-02-28T17:26:17;1.88;;;1.20;;
26486;SDS011;14425;56.136;40.360;2023-02-28T17:28:48;1.08;;;0.93;;
26486;SDS011;14425;56.136;40.360;2023-02-28T17:31:14;1.80;;;1.33;;
26486;SDS011;14425;56.136;40.360;2023-02-28T17:33:41;3.15;;;1.83;;
26486;SDS011;14425;56.136;40.360;2023-02-28T17:36:09;2.55;;;1.67;;
26486;SDS011;14425;56.136;40.360;2023-02-28T17:38:41;2.05;;;1.35;;
26486;SDS011;14425;56.136;40.360;2023-02-28T17:41:10;2.85;;;1.70;;
26486;SDS011;14425;56.136;40.360;2023-02-28T17:43:36;1.58;;;1.00;;
26486;SDS011;14425;56.136;40.360;2023-02-28T17:46:01;3.88;;;1.27;;
26486;SDS011;14425;56.136;40.360;2023-02-28T17:48:27;2.17;;;1.05;;